createdAt,value
2018-03-23T00:01:23.813Z,3.60
2018-03-23T00:03:51.476Z,3.60
2018-03-23T00:06:19.015Z,3.50
2018-03-23T00:08:46.539Z,3.50
2018-03-23T00:11:14.106Z,3.50
2018-03-23T00:13:41.635Z,3.50
2018-03-23T00:16:09.203Z,3.50
2018-03-23T00:18:36.779Z,3.50
2018-03-23T00:21:04.302Z,3.50
2018-03-23T00:23:32.587Z,3.50
2018-03-23T00:26:01.019Z,3.50
2018-03-23T00:28:28.542Z,3.50
2018-03-23T00:30:56.082Z,3.50
2018-03-23T00:33:23.840Z,3.50
2018-03-23T00:35:51.358Z,3.50
2018-03-23T00:38:19.653Z,3.50
2018-03-23T00:40:48.171Z,3.50
2018-03-23T00:43:15.692Z,3.50
2018-03-23T00:45:43.231Z,3.50
2018-03-23T00:48:10.810Z,3.40
2018-03-23T00:50:38.342Z,3.40
2018-03-23T00:53:06.626Z,3.40
2018-03-23T00:55:35.059Z,3.40
2018-03-23T00:58:02.621Z,3.40
2018-03-23T01:00:30.194Z,3.40
2018-03-23T01:02:57.754Z,3.40
2018-03-23T01:05:25.274Z,3.40
2018-03-23T01:07:53.618Z,3.40
2018-03-23T01:10:21.183Z,3.40
2018-03-23T01:12:48.709Z,3.50
2018-03-23T01:15:16.344Z,3.50
2018-03-23T01:17:44.016Z,3.50
2018-03-23T01:20:11.541Z,3.40
2018-03-23T01:22:42.025Z,3.40
2018-03-23T01:25:09.695Z,3.40
2018-03-23T01:27:37.298Z,3.40
2018-03-23T01:30:04.817Z,3.40
2018-03-23T01:32:32.378Z,3.40
2018-03-23T01:35:00.671Z,3.40
2018-03-23T01:37:28.967Z,3.40
2018-03-23T01:39:56.535Z,3.40
2018-03-23T01:42:24.066Z,3.40
2018-03-23T01:44:51.590Z,3.40
2018-03-23T01:47:19.166Z,3.40
2018-03-23T01:49:46.687Z,3.40
2018-03-23T01:52:14.310Z,3.40
2018-03-23T01:54:41.983Z,3.50
2018-03-23T01:57:09.559Z,3.50
2018-03-23T01:59:37.855Z,3.50
2018-03-23T02:02:05.443Z,3.50
2018-03-23T02:04:32.962Z,3.50
2018-03-23T02:07:01.295Z,3.40
2018-03-23T02:09:28.959Z,3.40
2018-03-23T02:11:56.486Z,3.40
2018-03-23T02:14:24.855Z,3.40
2018-03-23T02:16:52.597Z,3.40
2018-03-23T02:19:20.123Z,3.40
2018-03-23T02:21:48.447Z,3.40
2018-03-23T02:24:16.110Z,3.40
2018-03-23T02:26:43.651Z,3.40
2018-03-23T02:29:11.978Z,3.40
2018-03-23T02:31:39.544Z,3.40
2018-03-23T02:34:07.071Z,3.40
2018-03-23T02:36:34.694Z,3.40
2018-03-23T02:39:02.275Z,3.40
2018-03-23T02:41:29.799Z,3.40
2018-03-23T02:43:58.103Z,3.30
2018-03-23T02:46:25.703Z,3.30
2018-03-23T02:48:53.222Z,3.30
2018-03-23T02:51:20.845Z,3.30
2018-03-23T02:53:49.307Z,3.30
2018-03-23T02:56:17.618Z,3.30
2018-03-23T02:58:45.134Z,3.30
2018-03-23T03:01:12.702Z,3.30
2018-03-23T03:03:40.244Z,3.30
2018-03-23T03:06:07.771Z,3.30
2018-03-23T03:08:36.108Z,3.30
2018-03-23T03:11:03.630Z,3.30
2018-03-23T03:13:31.910Z,3.30
2018-03-23T03:16:00.247Z,3.30
2018-03-23T03:18:27.771Z,3.30
2018-03-23T03:20:56.101Z,3.30
2018-03-23T03:23:23.775Z,3.30
2018-03-23T03:25:51.343Z,3.30
2018-03-23T03:28:18.866Z,3.30
2018-03-23T03:30:46.696Z,3.30
2018-03-23T03:33:14.227Z,3.20
2018-03-23T03:35:42.525Z,3.20
2018-03-23T03:38:10.924Z,3.20
2018-03-23T03:40:38.442Z,3.20
2018-03-23T03:43:05.986Z,3.20
2018-03-23T03:45:34.314Z,3.20
2018-03-23T03:48:03.368Z,3.20
2018-03-23T03:50:30.952Z,3.20
2018-03-23T03:52:58.531Z,3.20
2018-03-23T03:55:26.058Z,3.20
2018-03-23T03:57:54.396Z,3.20
2018-03-23T04:00:21.975Z,3.20
2018-03-23T04:02:49.498Z,3.20
2018-03-23T04:05:17.031Z,3.20
2018-03-23T04:07:44.599Z,3.20
2018-03-23T04:10:12.148Z,3.20
2018-03-23T04:12:39.683Z,3.20
2018-03-23T04:15:07.258Z,3.20
2018-03-23T04:17:34.791Z,3.20
2018-03-23T04:20:03.659Z,3.20
2018-03-23T04:22:31.235Z,3.20
2018-03-23T04:24:58.754Z,3.20
2018-03-23T04:27:27.048Z,3.20
2018-03-23T04:29:54.758Z,3.20
2018-03-23T04:32:22.283Z,3.20
2018-03-23T04:34:50.591Z,3.20
2018-03-23T04:37:18.178Z,3.20
2018-03-23T04:39:45.780Z,3.20
2018-03-23T04:42:13.339Z,3.20
2018-03-23T04:44:40.922Z,3.20
2018-03-23T04:47:08.453Z,3.20
2018-03-23T04:49:36.047Z,3.20
2018-03-23T04:52:03.622Z,3.20
2018-03-23T04:54:31.486Z,3.20
2018-03-23T04:56:59.215Z,3.20
2018-03-23T04:59:27.354Z,3.20
2018-03-23T05:01:54.887Z,3.20
2018-03-23T05:04:22.767Z,3.20
2018-03-23T05:06:51.307Z,3.20
2018-03-23T05:09:19.050Z,3.20
2018-03-23T05:11:46.732Z,3.10
2018-03-23T05:14:14.868Z,3.10
2018-03-23T05:16:42.667Z,3.10
2018-03-23T05:19:10.482Z,3.10
2018-03-23T05:21:38.995Z,3.10
2018-03-23T05:24:06.640Z,3.10
2018-03-23T05:26:34.421Z,3.10
2018-03-23T05:29:02.846Z,3.10
2018-03-23T05:31:30.583Z,3.10
2018-03-23T05:33:58.171Z,3.20
2018-03-23T05:36:25.761Z,3.20
2018-03-23T05:38:53.316Z,3.20
2018-03-23T05:41:20.891Z,3.20
2018-03-23T05:43:48.455Z,3.20
2018-03-23T05:46:16.082Z,3.30
2018-03-23T05:48:43.566Z,3.30
2018-03-23T05:51:12.058Z,3.30
2018-03-23T05:53:40.376Z,3.40
2018-03-23T05:56:07.903Z,3.40
2018-03-23T05:58:36.251Z,3.40
2018-03-23T06:01:03.896Z,3.40
2018-03-23T06:03:31.487Z,3.60
2018-03-23T06:05:59.155Z,3.70
2018-03-23T06:08:26.728Z,3.80
2018-03-23T06:10:54.250Z,3.80
2018-03-23T06:13:21.871Z,3.70
2018-03-23T06:15:49.398Z,3.70
2018-03-23T06:18:17.960Z,3.50
2018-03-23T06:20:45.551Z,3.50
2018-03-23T06:23:13.082Z,3.40
2018-03-23T06:25:40.607Z,3.30
2018-03-23T06:28:09.139Z,3.50
2018-03-23T06:30:36.666Z,3.40
2018-03-23T06:33:04.967Z,3.60
2018-03-23T06:35:34.215Z,3.70
2018-03-23T06:38:01.872Z,3.70
2018-03-23T06:40:29.454Z,3.70
2018-03-23T06:42:57.127Z,3.80
2018-03-23T06:45:24.668Z,3.90
2018-03-23T06:47:52.979Z,4.10
2018-03-23T06:50:20.550Z,4.10
2018-03-23T06:52:48.140Z,4.20
2018-03-23T06:55:15.674Z,4.30
2018-03-23T06:57:44.104Z,4.30
2018-03-23T07:00:11.636Z,4.30
2018-03-23T07:02:40.106Z,4.00
2018-03-23T07:05:07.679Z,4.00
2018-03-23T07:07:35.971Z,4.10
2018-03-23T07:10:04.279Z,4.20
2018-03-23T07:12:31.863Z,4.20
2018-03-23T07:14:59.447Z,4.30
2018-03-23T07:17:26.978Z,4.20
2018-03-23T07:19:55.410Z,3.80
2018-03-23T07:22:22.942Z,3.80
2018-03-23T07:24:51.278Z,3.60
2018-03-23T07:27:18.851Z,3.60
2018-03-23T07:29:46.406Z,3.70
2018-03-23T07:32:13.928Z,3.70
2018-03-23T07:34:42.377Z,3.70
2018-03-23T07:37:09.915Z,3.70
2018-03-23T07:39:38.594Z,3.90
2018-03-23T07:42:06.165Z,3.90
2018-03-23T07:44:33.696Z,4.00
2018-03-23T07:47:01.226Z,4.10
2018-03-23T07:49:28.802Z,4.20
2018-03-23T07:51:56.399Z,4.20
2018-03-23T07:54:23.978Z,4.30
2018-03-23T07:56:51.551Z,4.50
2018-03-23T07:59:19.085Z,4.70
2018-03-23T08:01:46.683Z,4.90
2018-03-23T08:04:14.246Z,5.10
2018-03-23T08:06:41.772Z,5.40
2018-03-23T08:09:09.331Z,5.50
2018-03-23T08:11:37.777Z,5.50
2018-03-23T08:14:05.350Z,5.40
2018-03-23T08:16:32.935Z,5.40
2018-03-23T08:19:01.421Z,5.20
2018-03-23T08:21:29.800Z,5.10
2018-03-23T08:23:57.351Z,5.10
2018-03-23T08:26:25.895Z,5.00
2018-03-23T08:28:53.450Z,5.00
2018-03-23T08:31:20.991Z,5.10
2018-03-23T08:33:49.330Z,5.00
2018-03-23T08:36:16.885Z,5.00
2018-03-23T08:38:44.423Z,5.10
2018-03-23T08:41:12.861Z,5.30
2018-03-23T08:43:40.399Z,5.20
2018-03-23T08:46:07.939Z,5.40
2018-03-23T08:48:36.266Z,5.80
2018-03-23T08:51:03.786Z,5.80
2018-03-23T08:53:31.319Z,6.10
2018-03-23T08:55:58.911Z,6.30
2018-03-23T08:58:26.450Z,6.40
2018-03-23T09:00:53.995Z,6.20
2018-03-23T09:03:22.335Z,6.00
2018-03-23T09:05:49.863Z,6.00
2018-03-23T09:08:17.478Z,6.30
2018-03-23T09:10:45.046Z,6.40
2018-03-23T09:13:12.579Z,6.50
2018-03-23T09:15:40.111Z,6.60
2018-03-23T09:18:07.695Z,6.80
2018-03-23T09:20:36.045Z,7.30
2018-03-23T09:23:03.588Z,7.30
2018-03-23T09:25:31.202Z,7.30
2018-03-23T09:27:58.727Z,7.30
2018-03-23T09:30:26.258Z,7.30
2018-03-23T09:35:27.958Z,8.10
2018-03-23T09:37:55.713Z,8.60
2018-03-23T09:40:23.249Z,9.00
2018-03-23T09:42:50.831Z,9.10
2018-03-23T09:45:18.604Z,9.40
2018-03-23T09:47:46.127Z,9.40
2018-03-23T09:50:13.746Z,9.40
2018-03-23T09:52:41.334Z,9.30
2018-03-23T09:55:08.894Z,9.10
2018-03-23T09:57:36.479Z,9.00
2018-03-23T10:00:04.255Z,8.80
2018-03-23T10:02:31.784Z,8.60
2018-03-23T10:04:59.311Z,8.70
2018-03-23T10:07:27.645Z,8.50
2018-03-23T10:09:55.178Z,8.50
2018-03-23T10:12:22.718Z,8.50
2018-03-23T10:14:50.278Z,8.30
2018-03-23T10:17:17.846Z,8.10
2018-03-23T10:19:45.371Z,8.10
2018-03-23T10:22:13.716Z,8.20
2018-03-23T10:24:41.253Z,8.20
2018-03-23T10:27:09.562Z,8.60
2018-03-23T10:29:37.139Z,8.60
2018-03-23T10:32:04.729Z,8.50
2018-03-23T10:34:32.258Z,8.50
2018-03-23T10:36:59.965Z,8.50
2018-03-23T10:39:27.490Z,8.30
2018-03-23T10:41:55.786Z,8.30
2018-03-23T10:44:24.203Z,8.30
2018-03-23T10:46:51.736Z,8.30
2018-03-23T10:49:20.048Z,8.10
2018-03-23T10:51:47.621Z,8.10
2018-03-23T10:54:15.147Z,8.10
2018-03-23T10:56:42.678Z,8.30
2018-03-23T10:59:10.362Z,8.50
2018-03-23T11:04:37.550Z,9.10
2018-03-23T11:07:05.085Z,9.10
2018-03-23T11:09:33.411Z,9.50
2018-03-23T11:12:01.195Z,9.50
2018-03-23T11:14:28.722Z,9.70
2018-03-23T11:16:57.020Z,9.70
2018-03-23T11:19:24.716Z,9.70
2018-03-23T11:21:52.247Z,9.80
2018-03-23T11:24:20.543Z,9.70
2018-03-23T11:26:48.887Z,9.80
2018-03-23T11:29:16.422Z,9.70
2018-03-23T11:31:44.018Z,9.70
2018-03-23T11:34:11.690Z,9.60
2018-03-23T11:36:39.218Z,9.40
2018-03-23T11:39:07.532Z,9.30
2018-03-23T11:41:35.118Z,9.30
2018-03-23T11:44:02.642Z,9.20
2018-03-23T11:46:30.939Z,9.70
2018-03-23T11:48:59.375Z,10.00
2018-03-23T11:51:26.915Z,10.00
2018-03-23T11:53:54.452Z,10.00
2018-03-23T11:56:22.080Z,10.00
2018-03-23T11:58:49.582Z,9.90
2018-03-23T12:01:17.109Z,9.90
2018-03-23T12:03:44.694Z,10.00
2018-03-23T12:06:12.226Z,9.80
2018-03-23T12:08:40.526Z,9.40
2018-03-23T12:11:08.103Z,9.40
2018-03-23T12:13:35.647Z,9.40
2018-03-23T12:16:03.956Z,9.60
2018-03-23T12:18:31.547Z,9.60
2018-03-23T12:20:59.082Z,9.80
2018-03-23T12:23:27.399Z,9.90
2018-03-23T12:25:55.066Z,9.90
2018-03-23T12:28:22.621Z,9.90
2018-03-23T12:30:50.914Z,9.90
2018-03-23T12:33:19.253Z,9.80
2018-03-23T12:35:46.810Z,9.80
2018-03-23T12:38:14.392Z,9.70
2018-03-23T12:40:42.154Z,9.50
2018-03-23T12:43:09.679Z,9.40
2018-03-23T12:45:38.034Z,9.30
2018-03-23T12:48:05.786Z,9.30
2018-03-23T12:50:33.355Z,9.30
2018-03-23T12:53:00.936Z,9.20
2018-03-23T12:55:28.710Z,9.10
2018-03-23T12:57:56.358Z,9.10
2018-03-23T13:00:25.363Z,9.00
2018-03-23T13:02:52.930Z,9.00
2018-03-23T13:05:21.228Z,8.90
2018-03-23T13:07:48.767Z,8.90
2018-03-23T13:10:17.269Z,8.90
2018-03-23T13:12:45.567Z,8.80
2018-03-23T13:15:13.855Z,8.80
2018-03-23T13:17:42.198Z,8.70
2018-03-23T13:20:09.771Z,8.70
2018-03-23T13:22:37.341Z,8.80
2018-03-23T13:25:05.111Z,8.70
2018-03-23T13:27:32.674Z,8.80
2018-03-23T13:30:00.302Z,8.80
2018-03-23T13:32:28.697Z,8.80
2018-03-23T13:34:57.692Z,8.80
2018-03-23T13:37:25.989Z,8.70
2018-03-23T13:39:54.527Z,8.70
2018-03-23T13:42:22.063Z,8.70
2018-03-23T13:44:49.592Z,8.70
2018-03-23T13:47:17.174Z,8.70
2018-03-23T13:49:44.698Z,8.60
2018-03-23T13:52:12.232Z,8.50
2018-03-23T13:54:40.573Z,8.60
2018-03-23T13:57:08.101Z,8.60
2018-03-23T13:59:42.185Z,8.50
2018-03-23T14:02:09.711Z,8.50
2018-03-23T14:04:37.296Z,8.50
2018-03-23T14:07:05.075Z,8.50
2018-03-23T14:09:32.600Z,8.50
2018-03-23T14:12:00.930Z,8.20
2018-03-23T14:14:28.490Z,8.20
2018-03-23T14:16:56.027Z,8.20
2018-03-23T14:19:23.555Z,8.20
2018-03-23T14:21:51.127Z,8.30
2018-03-23T14:24:18.646Z,8.30
2018-03-23T14:26:46.973Z,8.20
2018-03-23T14:29:14.747Z,8.20
2018-03-23T14:31:42.283Z,8.20
2018-03-23T14:34:10.622Z,8.30
2018-03-23T14:36:38.208Z,8.20
2018-03-23T14:39:05.795Z,8.20
2018-03-23T14:41:33.433Z,8.30
2018-03-23T14:44:01.208Z,8.20
2018-03-23T14:46:28.771Z,8.30
2018-03-23T14:48:56.295Z,8.30
2018-03-23T14:51:24.024Z,8.30
2018-03-23T14:53:51.947Z,8.40
2018-03-23T14:56:19.579Z,8.40
2018-03-23T14:58:53.011Z,8.50
2018-03-23T15:01:20.580Z,8.50
2018-03-23T15:03:48.126Z,8.50
2018-03-23T15:06:15.799Z,8.60
2018-03-23T15:08:43.332Z,8.60
2018-03-23T15:11:11.653Z,8.70
2018-03-23T15:13:39.224Z,8.70
2018-03-23T15:16:06.800Z,8.70
2018-03-23T15:18:34.343Z,8.60
2018-03-23T15:21:01.952Z,8.60
2018-03-23T15:23:29.503Z,8.60
2018-03-23T15:25:57.030Z,8.70
2018-03-23T15:28:24.595Z,8.70
2018-03-23T15:30:52.158Z,8.70
2018-03-23T15:33:19.689Z,8.70
2018-03-23T15:35:47.361Z,8.70
2018-03-23T15:38:14.915Z,8.70
2018-03-23T15:40:42.442Z,8.60
2018-03-23T15:43:10.019Z,8.60
2018-03-23T15:45:37.547Z,8.60
2018-03-23T15:48:05.074Z,8.50
2018-03-23T15:50:32.638Z,8.40
2018-03-23T15:53:00.163Z,8.50
2018-03-23T15:55:27.733Z,8.50
2018-03-23T15:57:55.423Z,8.50
2018-03-23T16:00:22.956Z,8.40
2018-03-23T16:02:51.251Z,8.30
2018-03-23T16:05:19.314Z,8.30
2018-03-23T16:07:47.652Z,8.30
2018-03-23T16:10:16.063Z,8.20
2018-03-23T16:12:43.878Z,8.20
2018-03-23T16:15:12.203Z,8.20
2018-03-23T16:17:39.774Z,8.20
2018-03-23T16:20:07.458Z,8.10
2018-03-23T16:22:34.988Z,8.10
2018-03-23T16:25:03.293Z,8.10
2018-03-23T16:27:30.903Z,8.10
2018-03-23T16:29:58.428Z,8.10
2018-03-23T16:32:25.964Z,8.10
2018-03-23T16:34:53.557Z,8.10
2018-03-23T16:37:21.859Z,8.00
2018-03-23T16:39:49.394Z,8.00
2018-03-23T16:42:17.823Z,8.00
2018-03-23T16:44:45.504Z,8.00
2018-03-23T16:47:13.376Z,8.00
2018-03-23T16:49:41.161Z,8.00
2018-03-23T16:52:08.802Z,8.00
2018-03-23T16:54:36.342Z,8.10
2018-03-23T16:57:03.903Z,8.30
2018-03-23T16:59:31.440Z,8.20
2018-03-23T17:01:58.972Z,8.20
2018-03-23T17:04:26.543Z,8.10
2018-03-23T17:06:54.229Z,8.00
2018-03-23T17:09:22.538Z,8.00
2018-03-23T17:11:50.198Z,8.00
2018-03-23T17:14:18.489Z,8.10
2018-03-23T17:16:46.799Z,8.20
2018-03-23T17:19:14.439Z,8.10
2018-03-23T17:21:42.731Z,8.30
2018-03-23T17:24:11.106Z,8.20
2018-03-23T17:26:38.692Z,8.20
2018-03-23T17:29:06.279Z,8.10
2018-03-23T17:31:33.894Z,8.10
2018-03-23T17:34:01.513Z,8.00
2018-03-23T17:36:29.842Z,8.00
2018-03-23T17:38:57.369Z,8.00
2018-03-23T17:41:25.811Z,7.90
2018-03-23T17:43:53.334Z,7.90
2018-03-23T17:46:21.634Z,8.00
2018-03-23T17:48:49.356Z,8.00
2018-03-23T17:51:16.911Z,8.10
2018-03-23T17:53:44.451Z,8.10
2018-03-23T17:56:12.799Z,8.10
2018-03-23T17:58:40.439Z,8.10
2018-03-23T18:01:07.974Z,8.10
2018-03-23T18:03:36.630Z,8.10
2018-03-23T18:06:04.198Z,8.10
2018-03-23T18:08:31.740Z,8.10
2018-03-23T18:10:59.319Z,8.10
2018-03-23T18:13:26.980Z,8.10
2018-03-23T18:15:54.519Z,8.10
2018-03-23T18:18:22.258Z,8.00
2018-03-23T18:20:50.015Z,8.00
2018-03-23T18:23:17.555Z,8.00
2018-03-23T18:25:45.886Z,7.80
2018-03-23T18:28:14.244Z,7.80
2018-03-23T18:30:41.782Z,7.80
2018-03-23T18:33:09.386Z,7.70
2018-03-23T18:35:36.941Z,7.70
2018-03-23T18:38:05.374Z,7.60
2018-03-23T18:40:32.962Z,7.70
2018-03-23T18:43:00.519Z,7.70
2018-03-23T18:45:28.090Z,7.60
2018-03-23T18:47:55.666Z,7.60
2018-03-23T18:50:23.194Z,7.60
2018-03-23T18:52:51.503Z,7.60
2018-03-23T18:55:19.177Z,7.60
2018-03-23T18:57:46.849Z,7.60
2018-03-23T19:00:14.401Z,7.60
2018-03-23T19:02:42.823Z,7.60
2018-03-23T19:05:10.374Z,7.60
2018-03-23T19:07:38.020Z,7.60
2018-03-23T19:10:06.364Z,7.60
2018-03-23T19:12:33.894Z,7.60
2018-03-23T19:15:02.306Z,7.50
2018-03-23T19:17:29.886Z,7.50
2018-03-23T19:19:57.435Z,7.50
2018-03-23T19:22:24.999Z,7.60
2018-03-23T19:24:53.365Z,7.50
2018-03-23T19:27:20.932Z,7.50
2018-03-23T19:29:48.493Z,7.50
2018-03-23T19:32:16.076Z,7.50
2018-03-23T19:34:43.617Z,7.50
2018-03-23T19:37:11.162Z,7.50
2018-03-23T19:39:38.888Z,7.50
2018-03-23T19:42:06.423Z,7.40
2018-03-23T19:44:34.016Z,7.40
2018-03-23T19:47:01.842Z,7.30
2018-03-23T19:49:30.187Z,7.40
2018-03-23T19:51:57.714Z,7.30
2018-03-23T19:54:25.296Z,7.40
2018-03-23T19:56:52.840Z,7.40
2018-03-23T19:59:21.138Z,7.40
2018-03-23T20:01:48.757Z,7.40
2018-03-23T20:04:16.291Z,7.50
2018-03-23T20:06:43.855Z,7.50
2018-03-23T20:09:11.523Z,7.50
2018-03-23T20:11:39.840Z,7.50
2018-03-23T20:14:11.245Z,7.40
2018-03-23T20:16:39.591Z,7.40
2018-03-23T20:19:07.726Z,7.40
2018-03-23T20:21:35.333Z,7.30
2018-03-23T20:24:08.528Z,7.30
2018-03-23T20:26:36.226Z,7.30
2018-03-23T20:29:03.784Z,7.30
2018-03-23T20:31:36.991Z,7.30
2018-03-23T20:34:04.527Z,7.30
2018-03-23T20:36:32.135Z,7.30
2018-03-23T20:38:59.820Z,7.30
2018-03-23T20:41:27.380Z,7.20
2018-03-23T20:43:54.936Z,7.20
2018-03-23T20:46:22.515Z,7.20
2018-03-23T20:48:50.111Z,7.10
2018-03-23T20:51:17.651Z,7.10
2018-03-23T20:53:45.240Z,7.00
2018-03-23T20:56:12.770Z,7.00
2018-03-23T20:58:41.123Z,7.00
2018-03-23T21:01:08.691Z,7.00
2018-03-23T21:03:36.498Z,7.00
2018-03-23T21:06:04.044Z,6.90
2018-03-23T21:08:31.629Z,6.90
2018-03-23T21:10:59.217Z,6.80
2018-03-23T21:13:26.752Z,6.80
2018-03-23T21:15:54.381Z,6.80
2018-03-23T21:18:21.927Z,6.80
2018-03-23T21:20:49.524Z,6.70
2018-03-23T21:23:17.883Z,6.60
2018-03-23T21:25:45.424Z,6.60
2018-03-23T21:28:12.977Z,6.60
2018-03-23T21:30:40.566Z,6.60
2018-03-23T21:33:08.138Z,6.60
2018-03-23T21:35:35.831Z,6.50
2018-03-23T21:38:03.406Z,6.50
2018-03-23T21:40:32.467Z,6.50
2018-03-23T21:43:00.097Z,6.50
2018-03-23T21:45:28.462Z,6.50
2018-03-23T21:47:56.023Z,6.50
2018-03-23T21:50:23.677Z,6.60
2018-03-23T21:52:51.245Z,6.50
2018-03-23T21:55:18.790Z,6.50
2018-03-23T21:57:46.390Z,6.50
2018-03-23T22:00:13.959Z,6.50
2018-03-23T22:02:41.489Z,6.50
2018-03-23T22:05:09.040Z,6.50
2018-03-23T22:07:36.619Z,6.40
2018-03-23T22:10:04.179Z,6.40
2018-03-23T22:12:32.526Z,6.40
2018-03-23T22:15:00.291Z,6.40
2018-03-23T22:17:28.602Z,6.40
2018-03-23T22:19:56.147Z,6.40
2018-03-23T22:22:24.503Z,6.40
2018-03-23T22:24:52.442Z,6.40
2018-03-23T22:27:19.970Z,6.50
2018-03-23T22:29:47.546Z,6.40
2018-03-23T22:32:15.873Z,6.40
2018-03-23T22:34:43.416Z,6.40
2018-03-23T22:37:11.851Z,6.40
2018-03-23T22:39:39.387Z,6.40
2018-03-23T22:42:07.686Z,6.30
2018-03-23T22:44:35.269Z,6.30
2018-03-23T22:47:02.852Z,6.30
2018-03-23T22:49:30.403Z,6.30
2018-03-23T22:51:58.106Z,6.20
2018-03-23T22:54:25.650Z,6.30
2018-03-23T22:56:53.238Z,6.30
2018-03-23T22:59:20.915Z,6.30
2018-03-23T23:01:48.446Z,6.30
2018-03-23T23:04:16.743Z,6.30
2018-03-23T23:06:44.312Z,6.30
2018-03-23T23:09:12.622Z,6.30
2018-03-23T23:11:40.162Z,6.30
2018-03-23T23:14:08.684Z,6.30
2018-03-23T23:16:36.266Z,6.30
2018-03-23T23:19:03.800Z,6.30
2018-03-23T23:21:32.342Z,6.20
2018-03-23T23:23:59.887Z,6.20
2018-03-23T23:26:27.426Z,6.20
2018-03-23T23:28:55.782Z,6.20
2018-03-23T23:31:23.315Z,6.20
2018-03-23T23:33:50.908Z,6.20
2018-03-23T23:36:18.462Z,6.20
2018-03-23T23:38:45.995Z,6.20
2018-03-23T23:41:13.531Z,6.20
2018-03-23T23:43:41.099Z,6.20
2018-03-23T23:46:08.630Z,6.20
2018-03-23T23:48:36.168Z,6.10
2018-03-23T23:51:03.771Z,6.10
2018-03-23T23:53:31.375Z,6.10
2018-03-23T23:55:58.905Z,6.10
2018-03-23T23:58:27.334Z,6.10
